Thunder radar more information blitzortung!


Radar de pluja more information rain snow radar


Visita la nostra xarxa de llocs de meteo:

Template documentation
and downloads

And another site



No particular awareness of the weather is required.    There are no Weather-warnings

Pagina Historial Weather Underground text

Diari Resum February 11, 2016 Unitats:  Mètric    Imperial   Tant
« Previous Dia
SegĂźent Dia »
Diari Setmana Mensual Anual Personalitzada
  Maxima: Minima: Media:
Temperatura: 13.7 °C 9.0 °C 11.2 °C
Punt de rosada: 10.7 °C 4.6 °C 7.9 °C
Humitat: 87 % 69 % 81 %
Wind Speed: 11.1 km/h 0.0 km/h 3.2 km/h
RĂ fegues de vent: 11.3 km/h - -
Vent:- - SSE
Pression baro: 1012.8 hPa 1009.0 hPa -
Precipitacions: 0.0 mm    
Historical Graphs
 
 
Dades de taula per February 11, 2016
Temps Temperatura Punt de rosada Pression baro Vent Wind Speed RĂ fegues de vent Humitat Rainfall Rate (Hourly)
00:00 10.0 °C 4.6 °C 1010.0 hPa East 4.8 km/h 11.3 km/h 69 % 0.0 mm
10:41 9.1 °C 6.6 °C 1011.7 hPa WNW 2.6 km/h 2.6 km/h 84 % 0.0 mm
10:47 9.7 °C 7.3 °C 1011.7 hPa NNE 1.9 km/h   85 % 0.0 mm
10:52 9.7 °C 7.3 °C 1011.7 hPa NE 3.7 km/h 3.7 km/h 85 % 0.0 mm
10:57 9.8 °C 7.4 °C 1011.7 hPa ENE 1.9 km/h 1.9 km/h 85 % 0.0 mm
11:02 9.9 °C 7.5 °C 1011.7 hPa NNE 1.9 km/h   85 % 0.0 mm
11:07 9.9 °C 7.5 °C 1012.8 hPa Calm     85 % 0.0 mm
11:12 10.0 °C 7.6 °C 1012.8 hPa NNE 3.5 km/h 3.5 km/h 85 % 0.0 mm
11:17 10.1 °C 7.7 °C 1012.8 hPa Calm     85 % 0.0 mm
11:22 10.1 °C 7.7 °C 1012.8 hPa Calm     85 % 0.0 mm
11:27 10.2 °C 7.8 °C 1012.8 hPa ENE 1.9 km/h 2.3 km/h 85 % 0.0 mm
11:32 10.1 °C 7.7 °C 1012.8 hPa ENE 1.4 km/h   85 % 0.0 mm
11:37 10.3 °C 7.9 °C 1011.7 hPa Calm     85 % 0.0 mm
11:42 10.4 °C 7.8 °C 1011.7 hPa Calm     84 % 0.0 mm
11:47 10.5 °C 8.1 °C 1011.7 hPa ENE 1.9 km/h 1.9 km/h 85 % 0.0 mm
11:53 10.5 °C 8.1 °C 1011.7 hPa ENE 1.9 km/h 2.3 km/h 85 % 0.0 mm
11:58 10.5 °C 8.1 °C 1011.7 hPa NE 1.9 km/h   85 % 0.0 mm
12:03 10.4 °C 8.0 °C 1011.7 hPa NE 1.9 km/h 2.3 km/h 85 % 0.0 mm
12:08 10.5 °C 8.1 °C 1011.7 hPa NNE 2.3 km/h 2.3 km/h 85 % 0.0 mm
12:13 10.5 °C 8.1 °C 1011.7 hPa ENE 3.7 km/h 3.7 km/h 85 % 0.0 mm
12:18 10.5 °C 8.1 °C 1011.7 hPa ENE 3.9 km/h 3.9 km/h 85 % 0.0 mm
12:23 10.6 °C 8.2 °C 1011.7 hPa NNE 1.9 km/h   85 % 0.0 mm
12:28 10.6 °C 8.2 °C 1011.7 hPa NNE 3.7 km/h 4.2 km/h 85 % 0.0 mm
12:33 10.5 °C 8.1 °C 1011.7 hPa NW 1.9 km/h   85 % 0.0 mm
12:38 10.6 °C 8.3 °C 1011.7 hPa NNE 1.9 km/h 1.9 km/h 86 % 0.0 mm
12:43 10.5 °C 8.1 °C 1011.7 hPa WNW 3.7 km/h 3.7 km/h 85 % 0.0 mm
12:48 10.5 °C 8.3 °C 1011.7 hPa NNE 1.9 km/h 1.9 km/h 86 % 0.0 mm
12:53 10.6 °C 8.3 °C 1011.7 hPa NE 2.6 km/h 2.6 km/h 86 % 0.0 mm
12:58 10.6 °C 8.3 °C 1011.7 hPa NE 1.9 km/h   86 % 0.0 mm
13:03 10.7 °C 8.4 °C 1011.7 hPa NE 1.9 km/h   86 % 0.0 mm
13:08 10.7 °C 8.4 °C 1011.7 hPa NNE 3.7 km/h 3.7 km/h 86 % 0.0 mm
13:13 10.6 °C 8.3 °C 1011.7 hPa NNE 1.9 km/h   86 % 0.0 mm
13:18 10.7 °C 8.4 °C 1011.7 hPa Calm     86 % 0.0 mm
13:23 10.8 °C 8.7 °C 1010.7 hPa Calm     87 % 0.0 mm
13:28 10.9 °C 8.8 °C 1010.7 hPa NW 1.9 km/h   87 % 0.0 mm
13:33 10.9 °C 8.8 °C 1010.7 hPa Calm   2.3 km/h 87 % 0.0 mm
13:38 10.9 °C 8.8 °C 1010.7 hPa SSE 1.9 km/h 1.9 km/h 87 % 0.0 mm
13:43 10.9 °C 8.8 °C 1010.7 hPa Calm     87 % 0.0 mm
13:48 10.9 °C 8.8 °C 1010.7 hPa Calm     87 % 0.0 mm
13:53 10.9 °C 8.8 °C 1009.0 hPa ESE 1.9 km/h 1.9 km/h 87 % 0.0 mm
13:58 11.0 °C 8.9 °C 1009.0 hPa NE 1.9 km/h 1.9 km/h 87 % 0.0 mm
14:03 11.0 °C 8.9 °C 1009.0 hPa NNE 1.9 km/h   87 % 0.0 mm
14:08 11.0 °C 8.9 °C 1010.0 hPa ENE 3.7 km/h 3.7 km/h 87 % 0.0 mm
14:13 11.0 °C 8.9 °C 1010.0 hPa Calm     87 % 0.0 mm
14:18 11.2 °C 9.1 °C 1010.0 hPa Calm     87 % 0.0 mm
14:23 11.2 °C 8.9 °C 1010.0 hPa WSW 2.3 km/h   86 % 0.0 mm
14:28 11.3 °C 9.2 °C 1010.0 hPa Calm     87 % 0.0 mm
14:33 11.3 °C 9.1 °C 1010.0 hPa SW 3.7 km/h 3.7 km/h 86 % 0.0 mm
14:38 11.4 °C 9.2 °C 1010.0 hPa WSW 3.7 km/h 3.7 km/h 86 % 0.0 mm
14:43 11.6 °C 9.3 °C 1010.0 hPa SW 3.7 km/h 3.7 km/h 86 % 0.0 mm
14:48 11.7 °C 9.3 °C 1010.0 hPa SW 7.4 km/h 7.4 km/h 85 % 0.0 mm
14:53 11.9 °C 9.4 °C 1010.0 hPa West 3.9 km/h 3.9 km/h 85 % 0.0 mm
14:58 12.1 °C 9.7 °C 1010.0 hPa WSW 5.6 km/h 5.6 km/h 85 % 0.0 mm
15:03 12.2 °C 9.8 °C 1010.0 hPa SW 5.6 km/h 5.6 km/h 85 % 0.0 mm
15:08 12.3 °C 9.8 °C 1010.7 hPa WSW 5.6 km/h 5.6 km/h 85 % 0.0 mm
15:13 12.4 °C 9.9 °C 1010.7 hPa SW 9.3 km/h 9.3 km/h 85 % 0.0 mm
15:18 12.5 °C 10.1 °C 1010.7 hPa WSW 3.7 km/h 3.7 km/h 85 % 0.0 mm
15:23 12.6 °C 10.2 °C 1010.0 hPa SW 5.0 km/h 5.0 km/h 85 % 0.0 mm
15:28 12.6 °C 9.9 °C 1010.0 hPa WSW 5.6 km/h 5.6 km/h 84 % 0.0 mm
15:33 12.8 °C 10.2 °C 1010.0 hPa SW 3.7 km/h 3.7 km/h 84 % 0.0 mm
15:38 13.0 °C 10.3 °C 1010.0 hPa SW 3.7 km/h 3.7 km/h 84 % 0.0 mm
15:43 13.5 °C 10.7 °C 1010.0 hPa SW 5.8 km/h 5.8 km/h 83 % 0.0 mm
15:48 13.7 °C 10.7 °C 1010.0 hPa East 1.9 km/h   82 % 0.0 mm
15:53 13.4 °C 10.4 °C 1010.0 hPa SW 2.3 km/h   82 % 0.0 mm
16:03 13.3 °C 10.3 °C 1010.0 hPa WSW 1.9 km/h   82 % 0.0 mm
16:08 13.3 °C 10.3 °C 1010.0 hPa SW 1.9 km/h   82 % 0.0 mm
16:13 13.2 °C 10.0 °C 1010.0 hPa SSW 3.7 km/h 3.7 km/h 81 % 0.0 mm
16:23 13.1 °C 9.9 °C 1010.0 hPa SW 3.7 km/h 3.7 km/h 81 % 0.0 mm
16:28 13.1 °C 9.9 °C 1010.0 hPa Calm     81 % 0.0 mm
16:33 13.1 °C 9.9 °C 1010.0 hPa NNW 1.9 km/h   81 % 0.0 mm
16:38 13.1 °C 9.9 °C 1009.0 hPa NE 3.7 km/h   81 % 0.0 mm
16:43 13.0 °C 9.8 °C 1009.0 hPa NNE 5.6 km/h 5.6 km/h 81 % 0.0 mm
16:58 12.9 °C 9.9 °C 1010.0 hPa ENE 3.7 km/h 3.7 km/h 82 % 0.0 mm
17:03 12.9 °C 9.9 °C 1010.0 hPa West 1.9 km/h   82 % 0.0 mm
17:08 12.8 °C 9.8 °C 1009.0 hPa NNW 5.6 km/h 5.6 km/h 82 % 0.0 mm
17:13 12.9 °C 9.7 °C 1009.0 hPa SSE 3.7 km/h 3.7 km/h 81 % 0.0 mm
17:18 13.0 °C 9.6 °C 1009.0 hPa WSW 5.6 km/h 5.6 km/h 80 % 0.0 mm
17:23 13.1 °C 9.6 °C 1010.0 hPa SW 2.6 km/h 2.6 km/h 79 % 0.0 mm
17:28 13.0 °C 9.3 °C 1010.0 hPa WNW 3.2 km/h 3.2 km/h 78 % 0.0 mm
17:33 12.9 °C 9.2 °C 1010.0 hPa SW 5.6 km/h 5.6 km/h 78 % 0.0 mm
17:38 12.8 °C 8.9 °C 1010.0 hPa WSW 7.4 km/h 7.4 km/h 77 % 0.0 mm
17:43 12.9 °C 8.9 °C 1010.0 hPa SW 4.2 km/h 4.2 km/h 77 % 0.0 mm
17:48 12.9 °C 8.6 °C 1010.0 hPa WSW 9.3 km/h 9.3 km/h 75 % 0.0 mm
17:58 12.7 °C 8.4 °C 1010.0 hPa WSW 3.9 km/h 3.9 km/h 75 % 0.0 mm
18:03 12.5 °C 8.2 °C 1010.0 hPa WSW 7.4 km/h 7.4 km/h 75 % 0.0 mm
18:08 12.4 °C 8.1 °C 1009.0 hPa SSW 5.6 km/h 5.6 km/h 75 % 0.0 mm
18:13 12.2 °C 7.7 °C 1009.0 hPa WSW 5.6 km/h 5.6 km/h 74 % 0.0 mm
18:18 12.0 °C 7.7 °C 1009.0 hPa WSW 8.7 km/h 8.7 km/h 75 % 0.0 mm
18:23 12.0 °C 7.5 °C 1010.0 hPa West 7.4 km/h 7.4 km/h 74 % 0.0 mm
18:28 11.9 °C 7.4 °C 1010.0 hPa West 7.4 km/h 7.4 km/h 74 % 0.0 mm
18:33 11.8 °C 7.5 °C 1010.0 hPa ESE 7.4 km/h 7.4 km/h 75 % 0.0 mm
18:38 11.7 °C 7.4 °C 1010.0 hPa SW 3.7 km/h 3.7 km/h 75 % 0.0 mm
18:43 11.6 °C 7.3 °C 1010.0 hPa WSW 3.7 km/h 3.7 km/h 75 % 0.0 mm
18:48 11.5 °C 7.2 °C 1010.0 hPa West 4.2 km/h 4.2 km/h 75 % 0.0 mm
18:53 11.4 °C 7.1 °C 1010.0 hPa West 7.4 km/h 7.4 km/h 75 % 0.0 mm
18:58 11.4 °C 7.1 °C 1010.0 hPa SW 5.6 km/h 5.6 km/h 75 % 0.0 mm
19:03 11.4 °C 6.9 °C 1010.0 hPa West 4.7 km/h 4.7 km/h 74 % 0.0 mm
19:08 11.3 °C 6.8 °C 1010.7 hPa NW 3.7 km/h 3.7 km/h 74 % 0.0 mm
19:13 11.3 °C 6.8 °C 1010.7 hPa WSW 3.7 km/h 3.7 km/h 74 % 0.0 mm
19:18 11.2 °C 6.7 °C 1010.7 hPa West 11.1 km/h 11.1 km/h 74 % 0.0 mm
19:23 11.2 °C 6.7 °C 1010.7 hPa West 5.6 km/h 5.6 km/h 74 % 0.0 mm
19:33 11.1 °C 6.6 °C 1010.7 hPa WSW 5.6 km/h 5.6 km/h 74 % 0.0 mm
19:38 11.0 °C 6.6 °C 1010.7 hPa NNW 4.7 km/h 4.7 km/h 74 % 0.0 mm
19:48 11.0 °C 6.6 °C 1010.7 hPa SW 7.4 km/h 7.4 km/h 74 % 0.0 mm
19:53 11.1 °C 6.6 °C 1010.0 hPa West 9.3 km/h 9.3 km/h 74 % 0.0 mm
19:58 11.1 °C 6.6 °C 1010.0 hPa SW 3.7 km/h 3.7 km/h 74 % 0.0 mm
20:03 11.2 °C 6.7 °C 1010.0 hPa WNW 5.0 km/h 5.0 km/h 74 % 0.0 mm
20:08 11.3 °C 6.8 °C 1010.7 hPa ENE 3.7 km/h 3.7 km/h 74 % 0.0 mm
20:13 11.3 °C 6.8 °C 1010.7 hPa NE 7.4 km/h 7.4 km/h 74 % 0.0 mm
20:18 11.3 °C 6.6 °C 1010.7 hPa East 3.9 km/h 3.9 km/h 73 % 0.0 mm
20:28 11.2 °C 6.7 °C 1010.7 hPa ESE 5.6 km/h 5.6 km/h 74 % 0.0 mm
20:33 11.1 °C 6.6 °C 1010.7 hPa SW 3.7 km/h 3.7 km/h 74 % 0.0 mm
20:38 11.0 °C 6.6 °C 1011.7 hPa WSW 3.2 km/h 3.2 km/h 74 % 0.0 mm
20:43 10.8 °C 6.3 °C 1011.7 hPa Calm     74 % 0.0 mm
20:48 10.8 °C 6.6 °C 1011.7 hPa NNW 1.9 km/h   75 % 0.0 mm
20:53 10.8 °C 6.6 °C 1011.7 hPa Calm     75 % 0.0 mm
20:58 10.7 °C 6.4 °C 1011.7 hPa Calm     75 % 0.0 mm
21:03 10.6 °C 6.3 °C 1011.7 hPa Calm     75 % 0.0 mm
21:13 10.6 °C 6.3 °C 1010.7 hPa Calm     75 % 0.0 mm
21:23 10.0 °C 5.8 °C 1011.7 hPa Calm     75 % 0.0 mm
21:28 10.0 °C 5.9 °C 1011.7 hPa ENE 2.3 km/h   76 % 0.0 mm
21:33 10.0 °C 5.9 °C 1011.7 hPa East 2.6 km/h 2.6 km/h 76 % 0.0 mm
21:43 10.0 °C 5.9 °C 1011.7 hPa SW 3.7 km/h   76 % 0.0 mm
21:48 9.9 °C 5.9 °C 1011.7 hPa SSE 3.7 km/h 3.7 km/h 76 % 0.0 mm
21:53 10.0 °C 5.9 °C 1011.7 hPa SW 3.9 km/h 3.9 km/h 76 % 0.0 mm
22:03 9.8 °C 5.8 °C 1011.7 hPa Calm     76 % 0.0 mm
22:08 9.7 °C 5.8 °C 1010.7 hPa Calm     77 % 0.0 mm
22:13 9.7 °C 5.8 °C 1010.7 hPa Calm     77 % 0.0 mm
22:23 9.6 °C 5.8 °C 1011.7 hPa Calm     77 % 0.0 mm
22:33 9.5 °C 5.7 °C 1011.7 hPa Calm     77 % 0.0 mm
22:38 9.4 °C 5.6 °C 1010.7 hPa ENE 3.7 km/h 3.7 km/h 77 % 0.0 mm
22:43 9.2 °C 5.6 °C 1010.7 hPa NE 4.2 km/h 4.2 km/h 78 % 0.0 mm
22:48 9.1 °C 5.4 °C 1010.7 hPa NNE 3.7 km/h 3.7 km/h 78 % 0.0 mm
22:53 9.0 °C 5.4 °C 1011.7 hPa East 5.8 km/h 5.8 km/h 78 % 0.0 mm
22:58 9.2 °C 5.7 °C 1011.7 hPa Calm     79 % 0.0 mm
23:03 9.2 °C 5.7 °C 1011.7 hPa NNE 3.7 km/h 3.7 km/h 79 % 0.0 mm
23:08 9.2 °C 5.7 °C 1011.7 hPa NNE 1.9 km/h   79 % 0.0 mm
23:13 9.1 °C 5.7 °C 1011.7 hPa NNE 3.7 km/h 3.7 km/h 79 % 0.0 mm
23:18 9.0 °C 5.6 °C 1011.7 hPa Calm     79 % 0.0 mm
23:23 9.0 °C 5.6 °C 1011.7 hPa Calm     79 % 0.0 mm
Meteo Sesrovires
Elogis d' Weather Underground - 3.25 mb

Guio original per  Jim McMurry - jmcmurry@mwt.net Adaptat per a la plantilla per  Wim van der Kuil - Leuven-Template.eu

Trobareu la nostra informacio del temps tambe a:

Weather Underground

AWEKAS